createdAt,value
2017-07-21T00:02:26.207Z,52.37
2017-07-21T00:04:53.736Z,52.35
2017-07-21T00:07:21.248Z,52.34
2017-07-21T00:09:48.737Z,52.31
2017-07-21T00:12:16.287Z,52.31
2017-07-21T00:14:43.798Z,52.22
2017-07-21T00:17:23.917Z,52.22
2017-07-21T00:19:51.414Z,52.29
2017-07-21T00:22:18.973Z,52.22
2017-07-21T00:24:46.460Z,52.15
2017-07-21T00:27:14.000Z,52.14
2017-07-21T00:29:41.532Z,52.20
2017-07-21T00:32:09.093Z,52.11
2017-07-21T00:34:36.588Z,52.09
2017-07-21T00:37:04.168Z,52.02
2017-07-21T00:39:31.677Z,51.95
2017-07-21T00:41:59.168Z,52.02
2017-07-21T00:44:26.680Z,51.92
2017-07-21T00:49:46.569Z,51.88
2017-07-21T00:52:14.073Z,51.87
2017-07-21T00:54:41.588Z,51.79
2017-07-21T00:57:09.076Z,51.66
2017-07-21T00:59:36.584Z,51.61
2017-07-21T01:02:04.068Z,51.65
2017-07-21T01:04:31.584Z,51.70
2017-07-21T01:06:59.076Z,51.65
2017-07-21T01:09:26.593Z,51.54
2017-07-21T01:11:54.076Z,51.60
2017-07-21T01:14:21.592Z,51.52
2017-07-21T01:19:42.042Z,51.40
2017-07-21T01:22:09.603Z,51.43
2017-07-21T01:24:37.104Z,51.36
2017-07-21T01:27:04.629Z,51.19
2017-07-21T01:29:32.112Z,51.13
2017-07-21T01:31:59.636Z,51.17
2017-07-21T01:34:27.128Z,51.05
2017-07-21T01:36:54.647Z,51.10
2017-07-21T01:39:22.136Z,51.09
2017-07-21T01:41:49.657Z,50.89
2017-07-21T01:44:17.149Z,51.06
2017-07-21T01:49:36.944Z,50.93
2017-07-21T01:52:04.449Z,50.83
2017-07-21T01:54:31.931Z,50.81
2017-07-21T01:56:59.444Z,50.75
2017-07-21T01:59:26.932Z,50.72
2017-07-21T02:01:54.425Z,50.80
2017-07-21T02:04:21.953Z,50.80
2017-07-21T02:06:49.442Z,50.67
2017-07-21T02:09:16.953Z,50.76
2017-07-21T02:11:44.446Z,50.68
2017-07-21T02:14:12.577Z,50.63
2017-07-21T02:16:40.096Z,50.59
2017-07-21T02:19:07.607Z,50.59
2017-07-21T02:21:35.092Z,50.56
2017-07-21T02:24:02.608Z,50.59
2017-07-21T02:26:30.096Z,50.58
2017-07-21T02:28:57.594Z,50.59
2017-07-21T02:31:25.136Z,50.53
2017-07-21T02:33:52.632Z,50.46
2017-07-21T02:36:20.147Z,50.44
2017-07-21T02:38:47.756Z,50.49
2017-07-21T02:41:15.264Z,50.43
2017-07-21T02:43:42.748Z,50.33
2017-07-21T02:46:10.306Z,50.40
2017-07-21T02:48:37.801Z,50.38
2017-07-21T02:51:05.341Z,50.35
2017-07-21T02:53:32.852Z,50.30
2017-07-21T02:56:00.393Z,50.29
2017-07-21T02:58:28.081Z,50.29
2017-07-21T03:00:55.592Z,50.21
2017-07-21T03:03:23.117Z,50.28
2017-07-21T03:05:50.613Z,50.16
2017-07-21T03:08:18.120Z,50.17
2017-07-21T03:10:45.600Z,50.20
2017-07-21T03:13:13.111Z,50.16
2017-07-21T03:15:40.592Z,50.16
2017-07-21T03:18:08.175Z,50.08
2017-07-21T03:20:35.717Z,50.03
2017-07-21T03:23:15.117Z,50.01
2017-07-21T03:25:42.604Z,50.00
2017-07-21T03:28:10.093Z,49.99
2017-07-21T03:30:37.624Z,50.00
2017-07-21T03:33:05.107Z,49.92
2017-07-21T03:35:32.616Z,49.90
2017-07-21T03:38:00.112Z,49.78
2017-07-21T03:40:27.628Z,49.84
2017-07-21T03:42:55.124Z,49.79
2017-07-21T03:45:22.636Z,49.69
2017-07-21T03:47:50.125Z,49.79
2017-07-21T03:50:17.640Z,49.75
2017-07-21T03:52:45.133Z,49.70
2017-07-21T03:55:12.633Z,49.71
2017-07-21T03:57:40.217Z,49.64
2017-07-21T04:00:07.712Z,49.62
2017-07-21T04:02:35.225Z,49.61
2017-07-21T04:05:02.708Z,49.56
2017-07-21T04:07:30.232Z,49.55
2017-07-21T04:09:57.724Z,49.53
2017-07-21T04:12:25.254Z,49.51
2017-07-21T04:14:52.740Z,49.39
2017-07-21T04:17:30.785Z,49.41
2017-07-21T04:19:58.281Z,49.38
2017-07-21T04:22:25.800Z,49.34
2017-07-21T04:24:53.315Z,49.33
2017-07-21T04:27:20.842Z,49.28
2017-07-21T04:29:48.389Z,49.29
2017-07-21T04:32:15.889Z,49.24
2017-07-21T04:34:43.404Z,49.21
2017-07-21T04:37:10.896Z,49.19
2017-07-21T04:39:38.412Z,49.20
2017-07-21T04:42:05.898Z,49.10
2017-07-21T04:44:33.420Z,49.11
2017-07-21T04:49:53.712Z,49.08
2017-07-21T04:52:21.209Z,49.02
2017-07-21T04:54:48.721Z,49.02
2017-07-21T04:57:16.216Z,48.98
2017-07-21T04:59:43.740Z,48.95
2017-07-21T05:02:11.229Z,48.95
2017-07-21T05:04:38.724Z,48.87
2017-07-21T05:07:06.313Z,48.86
2017-07-21T05:09:33.861Z,48.82
2017-07-21T05:12:01.388Z,48.80
2017-07-21T05:14:28.886Z,48.79
2017-07-21T05:19:49.468Z,48.69
2017-07-21T05:22:16.991Z,48.72
2017-07-21T05:24:44.493Z,48.69
2017-07-21T05:27:12.013Z,48.64
2017-07-21T05:29:39.513Z,48.63
2017-07-21T05:32:07.032Z,48.62
2017-07-21T05:34:34.568Z,48.55
2017-07-21T05:37:02.189Z,48.56
2017-07-21T05:39:29.692Z,48.51
2017-07-21T05:41:57.184Z,48.45
2017-07-21T05:44:24.700Z,48.38
2017-07-21T05:49:44.581Z,48.35
2017-07-21T05:52:12.079Z,48.32
2017-07-21T05:54:39.604Z,48.32
2017-07-21T05:57:07.167Z,48.31
2017-07-21T05:59:34.685Z,48.17
2017-07-21T06:02:02.185Z,48.20
2017-07-21T06:04:29.696Z,48.21
2017-07-21T06:06:57.193Z,48.23
2017-07-21T06:09:24.721Z,48.18
2017-07-21T06:11:52.212Z,48.06
2017-07-21T06:14:19.785Z,48.08
2017-07-21T06:16:47.338Z,48.01
2017-07-21T06:19:14.833Z,48.05
2017-07-21T06:21:42.348Z,48.05
2017-07-21T06:24:09.844Z,48.13
2017-07-21T06:26:37.373Z,47.90
2017-07-21T06:29:04.884Z,48.03
2017-07-21T06:31:32.397Z,48.05
2017-07-21T06:33:59.969Z,48.13
2017-07-21T06:36:27.489Z,48.05
2017-07-21T06:38:54.992Z,47.99
2017-07-21T06:41:22.585Z,47.93
2017-07-21T06:43:50.072Z,47.78
2017-07-21T06:46:18.792Z,47.83
2017-07-21T06:48:46.280Z,47.90
2017-07-21T06:51:13.816Z,47.89
2017-07-21T06:53:41.332Z,47.75
2017-07-21T06:56:08.844Z,47.81
2017-07-21T06:58:36.372Z,47.79
2017-07-21T07:01:03.868Z,47.61
2017-07-21T07:03:31.466Z,47.58
2017-07-21T07:05:58.961Z,47.74
2017-07-21T07:08:26.473Z,47.76
2017-07-21T07:10:54.052Z,47.77
2017-07-21T07:13:21.572Z,47.20
2017-07-21T07:15:49.063Z,47.60
2017-07-21T07:18:16.587Z,47.68
2017-07-21T07:20:44.072Z,47.68
2017-07-21T07:23:11.563Z,47.78
2017-07-21T07:25:39.085Z,47.88
2017-07-21T07:28:06.676Z,47.77
2017-07-21T07:30:34.219Z,47.80
2017-07-21T07:33:01.713Z,47.64
2017-07-21T07:35:29.233Z,47.70
2017-07-21T07:37:56.727Z,47.72
2017-07-21T07:40:24.249Z,47.66
2017-07-21T07:42:51.740Z,47.73
2017-07-21T07:45:19.264Z,47.77
2017-07-21T07:47:52.553Z,47.75
2017-07-21T07:50:20.093Z,47.71
2017-07-21T07:52:47.588Z,47.72
2017-07-21T07:55:15.084Z,47.80
2017-07-21T07:57:42.622Z,47.80
2017-07-21T08:00:10.113Z,47.74
2017-07-21T08:02:37.639Z,47.72
2017-07-21T08:05:05.133Z,47.74
2017-07-21T08:07:32.653Z,47.70
2017-07-21T08:10:00.152Z,47.73
2017-07-21T08:12:27.664Z,47.70
2017-07-21T08:14:55.269Z,47.67
2017-07-21T08:17:22.913Z,47.68
2017-07-21T08:19:50.431Z,47.72
2017-07-21T08:22:17.976Z,47.67
2017-07-21T08:24:45.464Z,47.75
2017-07-21T08:27:12.996Z,47.61
2017-07-21T08:29:40.485Z,47.90
2017-07-21T08:32:07.975Z,47.68
2017-07-21T08:34:35.484Z,47.82
2017-07-21T08:37:02.967Z,47.68
2017-07-21T08:39:30.489Z,47.78
2017-07-21T08:41:57.976Z,47.77
2017-07-21T08:44:25.505Z,47.77
2017-07-21T08:49:46.043Z,47.69
2017-07-21T08:52:13.569Z,47.83
2017-07-21T08:54:41.105Z,47.74
2017-07-21T08:57:08.602Z,47.76
2017-07-21T08:59:36.120Z,47.74
2017-07-21T09:02:03.722Z,47.65
2017-07-21T09:04:31.281Z,47.64
2017-07-21T09:06:58.782Z,47.59
2017-07-21T09:09:26.304Z,47.57
2017-07-21T09:11:53.788Z,47.68
2017-07-21T09:14:21.297Z,47.68
2017-07-21T09:19:41.089Z,47.70
2017-07-21T09:22:08.613Z,47.69
2017-07-21T09:24:36.108Z,47.58
2017-07-21T09:27:03.664Z,47.42
2017-07-21T09:29:31.163Z,47.43
2017-07-21T09:31:58.709Z,47.51
2017-07-21T09:34:26.200Z,47.41
2017-07-21T09:36:53.716Z,47.42
2017-07-21T09:39:21.209Z,47.46
2017-07-21T09:41:48.725Z,47.44
2017-07-21T09:44:16.269Z,47.46
2017-07-21T09:49:36.238Z,47.37
2017-07-21T09:52:03.798Z,47.47
2017-07-21T09:54:31.326Z,47.39
2017-07-21T09:56:58.865Z,47.29
2017-07-21T09:59:26.386Z,47.16
2017-07-21T10:01:53.881Z,47.09
2017-07-21T10:04:21.400Z,47.01
2017-07-21T10:06:49.087Z,46.91
2017-07-21T10:09:16.621Z,46.90
2017-07-21T10:11:44.128Z,46.91
2017-07-21T10:14:11.647Z,46.79
2017-07-21T10:19:32.044Z,47.01
2017-07-21T10:21:59.533Z,47.08
2017-07-21T10:24:27.053Z,47.16
2017-07-21T10:26:54.539Z,47.15
2017-07-21T10:29:22.039Z,47.22
2017-07-21T10:31:49.568Z,47.27
2017-07-21T10:34:17.064Z,47.18
2017-07-21T10:36:44.572Z,47.27
2017-07-21T10:39:12.060Z,47.23
2017-07-21T10:41:39.592Z,47.29
2017-07-21T10:44:07.116Z,47.34
2017-07-21T10:49:27.273Z,47.22
2017-07-21T10:51:54.807Z,47.20
2017-07-21T10:54:22.428Z,47.04
2017-07-21T10:56:49.960Z,47.03
2017-07-21T10:59:17.448Z,47.06
2017-07-21T11:01:45.016Z,46.94
2017-07-21T11:04:12.505Z,47.10
2017-07-21T11:06:39.995Z,47.05
2017-07-21T11:09:07.513Z,47.07
2017-07-21T11:11:35.003Z,47.09
2017-07-21T11:14:02.529Z,47.04
2017-07-21T11:16:30.116Z,47.12
2017-07-21T11:18:57.632Z,46.90
2017-07-21T11:21:25.125Z,46.92
2017-07-21T11:23:52.636Z,46.94
2017-07-21T11:26:20.130Z,46.92
2017-07-21T11:28:48.157Z,46.87
2017-07-21T11:31:15.644Z,46.92
2017-07-21T11:33:43.132Z,46.97
2017-07-21T11:36:10.685Z,47.02
2017-07-21T11:38:38.920Z,47.02
2017-07-21T11:41:06.566Z,46.99
2017-07-21T11:43:34.068Z,47.12
2017-07-21T11:46:01.716Z,46.98
2017-07-21T11:48:29.225Z,46.99
2017-07-21T11:50:56.745Z,47.00
2017-07-21T11:53:24.241Z,47.12
2017-07-21T11:55:51.732Z,47.03
2017-07-21T11:58:19.357Z,46.93
2017-07-21T12:00:46.839Z,47.05
2017-07-21T12:03:14.361Z,47.00
2017-07-21T12:05:41.863Z,47.00
2017-07-21T12:08:10.084Z,47.07
2017-07-21T12:10:37.594Z,47.24
2017-07-21T12:13:05.180Z,47.33
2017-07-21T12:15:32.665Z,47.34
2017-07-21T12:18:00.237Z,47.43
2017-07-21T12:20:27.849Z,47.38
2017-07-21T12:22:55.333Z,47.37
2017-07-21T12:25:22.845Z,47.39
2017-07-21T12:27:50.349Z,47.31
2017-07-21T12:30:17.894Z,47.33
2017-07-21T12:32:45.386Z,47.39
2017-07-21T12:35:12.905Z,47.45
2017-07-21T12:37:40.413Z,47.35
2017-07-21T12:40:07.954Z,47.38
2017-07-21T12:42:35.440Z,47.42
2017-07-21T12:45:02.972Z,47.35
2017-07-21T12:47:30.476Z,47.29
2017-07-21T12:49:58.336Z,47.34
2017-07-21T12:52:25.848Z,47.36
2017-07-21T12:54:53.336Z,47.35
2017-07-21T12:57:20.851Z,47.42
2017-07-21T12:59:48.349Z,47.38
2017-07-21T13:02:15.893Z,47.38
2017-07-21T13:04:43.382Z,47.29
2017-07-21T13:07:10.896Z,47.22
2017-07-21T13:09:38.408Z,47.26
2017-07-21T13:12:05.937Z,47.33
2017-07-21T13:14:33.430Z,47.26
2017-07-21T13:17:00.939Z,47.23
2017-07-21T13:19:28.453Z,47.21
2017-07-21T13:21:55.949Z,47.26
2017-07-21T13:24:23.464Z,47.34
2017-07-21T13:26:50.953Z,47.42
2017-07-21T13:29:18.484Z,47.42
2017-07-21T13:31:45.972Z,47.41
2017-07-21T13:34:13.484Z,47.48
2017-07-21T13:36:40.969Z,47.53
2017-07-21T13:39:08.509Z,47.57
2017-07-21T13:41:35.992Z,47.54
2017-07-21T13:44:03.505Z,47.51
2017-07-21T13:46:31.152Z,47.50
2017-07-21T13:48:58.680Z,47.51
2017-07-21T13:51:26.200Z,47.54
2017-07-21T13:53:53.689Z,47.44
2017-07-21T13:56:21.207Z,47.50
2017-07-21T13:58:48.693Z,47.54
2017-07-21T14:01:16.204Z,47.53
2017-07-21T14:03:43.688Z,47.52
2017-07-21T14:06:11.227Z,47.53
2017-07-21T14:08:38.720Z,47.52
2017-07-21T14:11:06.229Z,47.56
2017-07-21T14:13:33.745Z,47.57
2017-07-21T14:16:02.024Z,47.57
2017-07-21T14:18:29.567Z,47.58
2017-07-21T14:20:57.868Z,47.54
2017-07-21T14:23:25.396Z,47.57
2017-07-21T14:25:52.916Z,47.61
2017-07-21T14:28:20.427Z,47.64
2017-07-21T14:30:47.910Z,47.70
2017-07-21T14:33:15.438Z,47.68
2017-07-21T14:35:42.932Z,47.64
2017-07-21T14:38:10.483Z,47.65
2017-07-21T14:40:38.004Z,47.72
2017-07-21T14:43:05.513Z,47.77
2017-07-21T14:45:33.025Z,47.72
2017-07-21T14:48:00.561Z,47.74
2017-07-21T14:50:28.136Z,47.75
2017-07-21T14:52:55.719Z,47.72
2017-07-21T14:55:23.254Z,47.70
2017-07-21T14:57:50.761Z,47.73
2017-07-21T15:00:18.335Z,47.75
2017-07-21T15:02:45.848Z,47.71
2017-07-21T15:05:13.493Z,47.76
2017-07-21T15:07:41.160Z,47.79
2017-07-21T15:10:08.653Z,47.80
2017-07-21T15:12:36.171Z,47.80
2017-07-21T15:15:03.694Z,47.76
2017-07-21T15:17:31.185Z,47.76
2017-07-21T15:19:58.737Z,47.73
2017-07-21T15:22:26.228Z,47.77
2017-07-21T15:24:53.752Z,47.75
2017-07-21T15:27:21.340Z,47.82
2017-07-21T15:29:49.189Z,47.84
2017-07-21T15:32:16.672Z,47.86
2017-07-21T15:34:44.504Z,47.78
2017-07-21T15:37:12.017Z,47.84
2017-07-21T15:39:40.344Z,47.85
2017-07-21T15:42:07.872Z,47.85
2017-07-21T15:44:35.385Z,47.91
2017-07-21T15:49:55.216Z,47.95
2017-07-21T15:52:22.708Z,47.92
2017-07-21T15:54:50.229Z,47.85
2017-07-21T15:57:17.717Z,47.89
2017-07-21T15:59:45.272Z,47.89
2017-07-21T16:02:12.769Z,47.89
2017-07-21T16:04:40.284Z,47.90
2017-07-21T16:07:07.800Z,47.87
2017-07-21T16:09:35.321Z,47.87
2017-07-21T16:12:02.808Z,47.91
2017-07-21T16:14:30.300Z,47.91
2017-07-21T16:19:50.318Z,47.97
2017-07-21T16:22:17.841Z,47.96
2017-07-21T16:24:45.328Z,48.04
2017-07-21T16:27:12.844Z,48.05
2017-07-21T16:29:40.332Z,48.07
2017-07-21T16:32:07.896Z,48.04
2017-07-21T16:34:35.428Z,48.04
2017-07-21T16:37:02.936Z,48.05
2017-07-21T16:39:30.424Z,48.08
2017-07-21T16:41:57.944Z,48.13
2017-07-21T16:44:25.572Z,48.19
2017-07-21T16:46:53.068Z,48.23
2017-07-21T16:49:20.588Z,48.24
2017-07-21T16:51:48.913Z,48.27
2017-07-21T16:54:16.424Z,48.23
2017-07-21T16:56:43.908Z,48.22
2017-07-21T16:59:11.420Z,48.17
2017-07-21T17:01:39.509Z,48.09
2017-07-21T17:04:07.043Z,48.13
2017-07-21T17:06:34.569Z,48.22
2017-07-21T17:09:02.060Z,48.21
2017-07-21T17:11:29.577Z,48.25
2017-07-21T17:13:57.110Z,48.19
2017-07-21T17:16:24.645Z,48.19
2017-07-21T17:18:52.144Z,48.21
2017-07-21T17:21:19.721Z,48.23
2017-07-21T17:23:47.212Z,48.16
2017-07-21T17:26:14.736Z,48.24
2017-07-21T17:28:42.240Z,48.28
2017-07-21T17:31:09.789Z,48.32
2017-07-21T17:33:37.278Z,48.38
2017-07-21T17:36:04.762Z,48.40
2017-07-21T17:38:32.280Z,48.43
2017-07-21T17:40:59.828Z,48.46
2017-07-21T17:43:27.440Z,48.48
2017-07-21T17:45:54.936Z,48.44
2017-07-21T17:48:22.456Z,48.48
2017-07-21T17:50:49.951Z,48.49
2017-07-21T17:53:17.460Z,48.53
2017-07-21T17:55:44.956Z,48.55
2017-07-21T17:58:12.468Z,48.61
2017-07-21T18:00:39.956Z,48.59
2017-07-21T18:03:07.496Z,48.62
2017-07-21T18:05:34.981Z,48.65
2017-07-21T18:08:02.481Z,48.67
2017-07-21T18:10:30.003Z,48.67
2017-07-21T18:12:57.495Z,48.70
2017-07-21T18:15:25.017Z,48.74
2017-07-21T18:17:52.504Z,48.75
2017-07-21T18:20:20.020Z,48.75
2017-07-21T18:22:47.556Z,48.77
2017-07-21T18:25:15.091Z,48.77
2017-07-21T18:27:42.581Z,48.81
2017-07-21T18:30:10.096Z,48.82
2017-07-21T18:32:37.597Z,48.84
2017-07-21T18:35:05.238Z,48.87
2017-07-21T18:37:32.787Z,48.89
2017-07-21T18:40:00.272Z,48.88
2017-07-21T18:42:27.861Z,48.90
2017-07-21T18:44:55.396Z,48.92
2017-07-21T18:47:46.217Z,48.94
2017-07-21T18:50:14.402Z,48.95
2017-07-21T18:52:42.029Z,48.95
2017-07-21T18:55:09.614Z,48.98
2017-07-21T18:57:37.129Z,48.98
2017-07-21T19:00:04.644Z,48.97
2017-07-21T19:02:32.173Z,48.96
2017-07-21T19:04:59.691Z,48.96
2017-07-21T19:07:27.209Z,48.96
2017-07-21T19:09:54.692Z,48.96
2017-07-21T19:12:22.194Z,48.98
2017-07-21T19:14:49.711Z,48.96
2017-07-21T19:20:09.588Z,48.99
2017-07-21T19:22:37.072Z,48.98
2017-07-21T19:25:04.609Z,48.97
2017-07-21T19:27:32.091Z,48.96
2017-07-21T19:29:59.626Z,48.97
2017-07-21T19:32:27.113Z,48.96
2017-07-21T19:34:54.640Z,48.96
2017-07-21T19:37:22.136Z,48.97
2017-07-21T19:39:49.647Z,48.98
2017-07-21T19:42:17.132Z,48.97
2017-07-21T19:44:44.672Z,48.96
2017-07-21T19:47:12.158Z,48.97
2017-07-21T19:49:39.649Z,48.96
2017-07-21T19:52:07.177Z,48.96
2017-07-21T19:54:34.668Z,48.95
2017-07-21T19:57:02.176Z,48.94
2017-07-21T19:59:29.672Z,48.94
2017-07-21T20:01:57.196Z,48.91
2017-07-21T20:04:24.713Z,48.92
2017-07-21T20:06:52.223Z,48.90
2017-07-21T20:09:19.707Z,48.90
2017-07-21T20:11:53.088Z,48.90
2017-07-21T20:14:20.747Z,48.91
2017-07-21T20:19:41.032Z,48.88
2017-07-21T20:22:08.565Z,48.88
2017-07-21T20:24:36.048Z,48.83
2017-07-21T20:27:03.541Z,48.80
2017-07-21T20:29:31.073Z,48.72
2017-07-21T20:31:58.560Z,48.79
2017-07-21T20:34:26.423Z,48.79
2017-07-21T20:36:54.174Z,48.75
2017-07-21T20:39:21.741Z,48.77
2017-07-21T20:41:49.229Z,48.73
2017-07-21T20:44:16.752Z,48.67
2017-07-21T20:46:44.972Z,48.69
2017-07-21T20:49:12.498Z,48.67
2017-07-21T20:51:40.033Z,48.65
2017-07-21T20:54:07.569Z,48.65
2017-07-21T20:56:35.090Z,48.67
2017-07-21T20:59:02.615Z,48.63
2017-07-21T21:01:30.174Z,48.61
2017-07-21T21:03:57.664Z,48.58
2017-07-21T21:06:25.180Z,48.59
2017-07-21T21:08:52.675Z,48.55
2017-07-21T21:11:20.240Z,48.56
2017-07-21T21:13:47.724Z,48.53
2017-07-21T21:16:15.204Z,48.54
2017-07-21T21:18:42.753Z,48.53
2017-07-21T21:21:10.240Z,48.53
2017-07-21T21:23:37.752Z,48.53
2017-07-21T21:26:05.232Z,48.51
2017-07-21T21:28:32.744Z,48.51
2017-07-21T21:31:00.224Z,48.50
2017-07-21T21:33:27.736Z,48.52
2017-07-21T21:35:55.216Z,48.49
2017-07-21T21:38:22.744Z,48.47
2017-07-21T21:40:50.272Z,48.47
2017-07-21T21:43:17.756Z,48.48
2017-07-21T21:45:45.264Z,48.46
2017-07-21T21:48:12.756Z,48.46
2017-07-21T21:50:40.279Z,48.44
2017-07-21T21:53:07.768Z,48.45
2017-07-21T21:55:35.288Z,48.46
2017-07-21T21:58:02.775Z,48.45
2017-07-21T22:00:30.272Z,48.46
2017-07-21T22:02:57.790Z,48.45
2017-07-21T22:05:25.357Z,48.44
2017-07-21T22:07:52.928Z,48.44
2017-07-21T22:10:20.413Z,48.44
2017-07-21T22:12:47.968Z,48.44
2017-07-21T22:15:27.292Z,48.45
2017-07-21T22:17:55.686Z,48.48
2017-07-21T22:20:23.183Z,48.49
2017-07-21T22:22:50.674Z,48.49
2017-07-21T22:25:18.251Z,48.48
2017-07-21T22:27:46.313Z,48.48
2017-07-21T22:30:13.868Z,48.47
2017-07-21T22:32:41.356Z,48.47
2017-07-21T22:35:08.874Z,48.48
2017-07-21T22:37:36.368Z,48.47
2017-07-21T22:40:03.881Z,48.47
2017-07-21T22:42:31.375Z,48.47
2017-07-21T22:44:58.890Z,48.47
2017-07-21T22:47:26.483Z,48.49
2017-07-21T22:49:54.016Z,48.49
2017-07-21T22:52:21.513Z,48.50
2017-07-21T22:54:49.513Z,48.48
2017-07-21T22:57:17.166Z,48.50
2017-07-21T22:59:44.656Z,48.50
2017-07-21T23:02:12.168Z,48.50
2017-07-21T23:04:39.660Z,48.50
2017-07-21T23:07:07.208Z,48.50
2017-07-21T23:09:34.692Z,48.52
2017-07-21T23:12:02.208Z,48.53
2017-07-21T23:14:30.075Z,48.53
2017-07-21T23:16:57.674Z,48.54
2017-07-21T23:19:25.201Z,48.53
2017-07-21T23:21:52.701Z,48.54
2017-07-21T23:24:20.220Z,48.56
2017-07-21T23:26:47.716Z,48.56
2017-07-21T23:29:15.229Z,48.55
2017-07-21T23:31:42.756Z,48.57
2017-07-21T23:34:10.264Z,48.58
2017-07-21T23:36:37.769Z,48.60
2017-07-21T23:39:05.315Z,48.61
2017-07-21T23:41:32.804Z,48.60
2017-07-21T23:44:00.316Z,48.59
2017-07-21T23:46:27.899Z,48.60
2017-07-21T23:48:55.429Z,48.62
2017-07-21T23:51:22.917Z,48.62
2017-07-21T23:53:50.408Z,48.63
2017-07-21T23:56:17.921Z,48.62
2017-07-21T23:58:45.416Z,48.63
